Time;durP1;ratioP1;P1;durP2;ratioP2;P2;SDS_P1;SDS_P2;PMS_P1;PMS_P2;Temp;Humidity;BMP_temperature;BMP_pressure;BME280_temperature;BME280_humidity;BME280_pressure;Samples;Min_cycle;Max_cycle;Signal;HPM_P1;HPM_P2
2022/11/27 00:00:42;;;;;;;60.33;36.60;;;;;;;4.80;100.00;100968.50;5050422;28;20052;-91
2022/11/27 00:03:07;;;;;;;65.72;38.63;;;;;;;4.76;100.00;100967.66;5050181;28;20116;-90
2022/11/27 00:05:32;;;;;;;71.97;40.75;;;;;;;4.81;100.00;100975.41;5049871;28;20060;-91
2022/11/27 00:07:58;;;;;;;66.22;38.08;;;;;;;4.78;100.00;100978.84;5050152;28;20032;-91
2022/11/27 00:10:23;;;;;;;61.28;37.65;;;;;;;4.78;100.00;100970.25;5049812;28;20083;-91
2022/11/27 00:12:48;;;;;;;70.13;41.58;;;;;;;4.82;100.00;100979.72;5049960;28;20023;-91
2022/11/27 00:15:14;;;;;;;63.78;38.42;;;;;;;4.85;100.00;100972.81;5050009;28;20123;-90
2022/11/27 00:17:40;;;;;;;64.97;38.45;;;;;;;4.84;100.00;100975.41;5050158;28;20033;-91
2022/11/27 00:20:06;;;;;;;65.43;37.95;;;;;;;4.83;100.00;100971.97;5050085;28;20048;-91
2022/11/27 00:22:32;;;;;;;64.72;37.58;;;;;;;4.83;100.00;100973.69;5049473;28;20365;-91
2022/11/27 00:24:57;;;;;;;63.45;36.65;;;;;;;4.87;100.00;100980.56;5049883;28;20036;-91
2022/11/27 00:27:23;;;;;;;60.15;36.47;;;;;;;4.86;100.00;100984.88;5049547;28;20078;-91
2022/11/27 00:29:48;;;;;;;69.78;39.05;;;;;;;4.89;100.00;100982.28;5050097;28;20025;-91
2022/11/27 00:32:13;;;;;;;59.05;35.78;;;;;;;4.87;100.00;100990.88;5053393;28;20051;-90
2022/11/27 00:34:39;;;;;;;63.10;38.20;;;;;;;4.86;100.00;100991.75;5053587;28;20436;-91
2022/11/27 00:37:06;;;;;;;65.20;39.75;;;;;;;4.81;100.00;100984.03;5053296;28;20048;-90
2022/11/27 00:39:31;;;;;;;66.50;38.65;;;;;;;4.77;100.00;100973.72;5053190;28;20440;-90
2022/11/27 00:41:57;;;;;;;67.20;39.92;;;;;;;4.82;100.00;100982.28;5053277;28;20057;-91
2022/11/27 00:44:22;;;;;;;67.80;40.45;;;;;;;4.80;100.00;100989.16;5053250;28;20123;-91
2022/11/27 00:46:48;;;;;;;75.30;41.25;;;;;;;4.72;100.00;100976.31;5053369;28;20017;-91
2022/11/27 00:49:14;;;;;;;67.55;38.97;;;;;;;4.75;100.00;100986.59;5053248;28;20464;-91
2022/11/27 00:51:40;;;;;;;73.32;40.03;;;;;;;4.73;100.00;100986.59;5053190;28;20044;-90
2022/11/27 00:54:06;;;;;;;69.03;39.92;;;;;;;4.78;100.00;100991.75;5053033;28;20064;-90
2022/11/27 00:56:35;;;;;;;69.35;39.75;;;;;;;4.75;100.00;100987.44;5052963;28;20032;-90
2022/11/27 00:59:01;;;;;;;65.57;38.63;;;;;;;4.79;100.00;100982.28;5053154;28;20025;-90
2022/11/27 01:01:36;;;;;;;69.82;37.47;;;;;;;4.81;100.00;100984.03;5052800;28;20415;-91
2022/11/27 01:04:03;;;;;;;71.28;39.80;;;;;;;4.79;100.00;100984.88;5052751;28;20024;-90
2022/11/27 01:06:29;;;;;;;62.90;36.92;;;;;;;4.78;100.00;100984.00;5052751;28;20086;-90
2022/11/27 01:08:56;;;;;;;74.45;38.47;;;;;;;4.73;100.00;100981.44;5052660;28;20032;-91
2022/11/27 01:11:25;;;;;;;68.90;38.75;;;;;;;4.75;100.00;100982.28;5052792;28;20360;-91
2022/11/27 01:13:52;;;;;;;71.47;38.08;;;;;;;4.75;100.00;100994.34;5053979;28;20029;-91
2022/11/27 01:16:21;;;;;;;68.78;37.88;;;;;;;4.75;100.00;100994.34;5052594;28;20036;-91
2022/11/27 01:18:48;;;;;;;63.67;36.80;;;;;;;4.67;100.00;100978.84;5052801;28;20032;-91
2022/11/27 01:21:17;;;;;;;62.13;35.90;;;;;;;4.69;100.00;100978.88;5052627;28;20403;-90
2022/11/27 01:23:43;;;;;;;65.57;37.78;;;;;;;4.72;100.00;100984.91;5052657;28;20167;-91
2022/11/27 01:26:10;;;;;;;63.30;35.20;;;;;;;4.73;100.00;100984.03;5052637;28;20059;-91
2022/11/27 01:28:38;;;;;;;67.50;36.47;;;;;;;4.72;100.00;100984.03;5080998;28;20036;-91
2022/11/27 01:31:06;;;;;;;66.13;37.05;;;;;;;4.71;100.00;100983.16;5092404;28;20582;-91
2022/11/27 01:33:32;;;;;;;72.22;39.08;;;;;;;4.71;100.00;100984.88;5092063;28;20480;-91
2022/11/27 01:36:00;;;;;;;63.08;36.95;;;;;;;4.72;100.00;100999.53;5092089;28;20052;-92
2022/11/27 01:38:27;;;;;;;67.60;38.20;;;;;;;4.71;100.00;100990.03;5091346;28;20039;-90
2022/11/27 01:41:11;;;;;;;70.85;38.47;;;;;;;4.69;100.00;100989.19;5091713;28;20063;-91
2022/11/27 01:43:38;;;;;;;62.65;35.90;;;;;;;4.72;100.00;100992.63;5090388;28;20016;-91
2022/11/27 01:46:11;;;;;;;59.17;35.25;;;;;;;4.67;100.00;100976.28;5091304;28;20028;-91
2022/11/27 01:48:37;;;;;;;65.70;37.90;;;;;;;4.77;100.00;100982.31;5090986;28;20034;-90
2022/11/27 01:51:02;;;;;;;64.45;36.53;;;;;;;4.71;100.00;100961.66;5091655;28;20024;-91
2022/11/27 01:53:27;;;;;;;60.97;37.55;;;;;;;4.79;100.00;100975.41;5091155;28;20024;-91
2022/11/27 01:55:58;;;;;;;63.20;36.60;;;;;;;4.77;100.00;100971.13;5091320;28;20505;-91
2022/11/27 01:58:27;;;;;;;64.80;36.20;;;;;;;4.73;100.00;100968.53;5091017;28;20024;-90
2022/11/27 02:00:52;;;;;;;63.90;36.65;;;;;;;4.77;100.00;100979.72;5091092;28;20028;-91
2022/11/27 02:03:18;;;;;;;65.18;37.00;;;;;;;4.77;100.00;100986.63;5091325;28;20019;-91
2022/11/27 02:05:43;;;;;;;67.72;37.47;;;;;;;4.73;100.00;100978.88;5091039;28;20052;-91
2022/11/27 02:08:15;;;;;;;70.88;37.08;;;;;;;4.79;100.00;100984.88;5091209;28;20459;-91
2022/11/27 02:10:47;;;;;;;68.78;37.47;;;;;;;4.78;100.00;100980.59;5090797;28;20434;-91
2022/11/27 02:13:36;;;;;;;62.05;36.53;;;;;;;4.75;100.00;100979.72;5090921;28;20521;-91
2022/11/27 02:16:08;;;;;;;59.15;35.47;;;;;;;4.78;100.00;100981.44;5090720;28;20103;-91
2022/11/27 02:18:53;;;;;;;57.83;33.58;;;;;;;4.78;100.00;100990.91;5090732;28;20080;-91
2022/11/27 02:21:27;;;;;;;59.58;32.97;;;;;;;4.78;100.00;100988.31;5090927;28;20417;-91
2022/11/27 02:24:28;;;;;;;59.83;33.63;;;;;;;4.78;100.00;100976.28;5090579;28;20024;-91
2022/11/27 02:27:02;;;;;;;61.07;34.57;;;;;;;4.75;100.00;100984.88;5090986;28;20471;-91
2022/11/27 02:29:33;;;;;;;63.80;35.85;;;;;;;4.73;100.00;100984.03;5090540;28;20030;-91
2022/11/27 02:32:08;;;;;;;63.67;35.83;;;;;;;4.72;100.00;100982.31;5090805;28;20028;-91
2022/11/27 02:34:59;;;;;;;65.55;36.25;;;;;;;4.72;100.00;100984.91;5090727;28;20036;-91
2022/11/27 02:37:30;;;;;;;61.13;36.80;;;;;;;4.67;100.00;100968.53;5051094;28;1133425;-91
2022/11/27 02:40:15;;;;;;;61.80;35.78;;;;;;;4.71;100.00;100979.72;5092421;28;20123;-91
2022/11/27 02:42:48;;;;;;;70.43;36.55;;;;;;;4.72;100.00;100981.47;5091192;28;20020;-92
2022/11/27 02:45:20;;;;;;;69.15;39.95;;;;;;;4.67;100.00;100978.00;5091457;28;20052;-92
2022/11/27 02:47:47;;;;;;;64.15;36.40;;;;;;;4.69;100.00;100981.47;5091165;28;20039;-91
2022/11/27 02:50:18;;;;;;;71.90;38.97;;;;;;;4.68;100.00;100987.50;5091271;28;20024;-91
2022/11/27 02:52:45;;;;;;;67.60;36.95;;;;;;;4.64;100.00;100973.72;5090826;28;20467;-91
2022/11/27 02:55:16;;;;;;;73.55;38.50;;;;;;;4.70;100.00;100980.59;5091014;28;20071;-91
2022/11/27 02:57:44;;;;;;;68.38;37.78;;;;;;;4.67;100.00;100975.41;5091009;28;20477;-91
2022/11/27 03:00:11;;;;;;;69.07;37.47;;;;;;;4.68;100.00;100970.28;5091201;28;20020;-91
2022/11/27 03:02:45;;;;;;;65.47;37.33;;;;;;;4.69;100.00;100978.88;5090944;28;20039;-91
2022/11/27 03:05:15;;;;;;;68.75;38.10;;;;;;;4.68;100.00;100974.59;5091026;28;20497;-91
2022/11/27 03:08:05;;;;;;;66.82;38.10;;;;;;;4.68;100.00;100969.41;5090635;28;20024;-91
2022/11/27 03:11:01;;;;;;;62.23;38.43;;;;;;;4.66;100.00;100969.41;5090894;28;20016;-91
2022/11/27 03:13:29;;;;;;;66.90;37.03;;;;;;;4.66;100.00;100966.81;5090570;28;20024;-91
2022/11/27 03:15:58;;;;;;;67.80;38.70;;;;;;;4.70;100.00;100967.69;5090752;28;20081;-91
2022/11/27 03:18:33;;;;;;;72.78;40.45;;;;;;;4.64;100.00;100962.53;5091016;28;20024;-91
2022/11/27 03:21:14;;;;;;;67.90;40.88;;;;;;;4.63;100.00;100966.81;5090887;28;20024;-91
2022/11/27 03:23:40;;;;;;;75.30;43.88;;;;;;;4.63;100.00;100968.53;5090547;28;20020;-91
2022/11/27 03:26:05;;;;;;;68.22;38.90;;;;;;;4.58;100.00;100962.53;5090787;28;20035;-91
2022/11/27 03:28:32;;;;;;;63.15;36.58;;;;;;;4.56;100.00;100962.56;5090379;28;20031;-91
2022/11/27 03:30:57;;;;;;;72.50;38.75;;;;;;;4.56;100.00;100961.69;5090650;28;20028;-91
2022/11/27 03:33:23;;;;;;;69.22;39.65;;;;;;;4.53;100.00;100966.84;5090716;28;20022;-91
2022/11/27 03:35:48;;;;;;;66.45;38.83;;;;;;;4.57;100.00;100964.25;5090387;28;20055;-91
2022/11/27 03:38:14;;;;;;;58.50;32.85;;;;;;;4.53;100.00;100961.69;5090707;28;20483;-91
2022/11/27 03:41:04;;;;;;;51.95;32.67;;;;;;;4.50;100.00;100960.81;5090439;28;20024;-90
2022/11/27 03:43:37;;;;;;;55.38;34.50;;;;;;;4.47;100.00;100947.09;5090541;28;20047;-91
2022/11/27 03:46:13;;;;;;;61.42;34.47;;;;;;;4.50;100.00;100947.06;5090658;28;20023;-91
2022/11/27 03:48:55;;;;;;;58.55;35.30;;;;;;;4.49;100.00;100947.94;5090558;28;20030;-91
2022/11/27 03:51:27;;;;;;;59.30;35.28;;;;;;;4.40;100.00;100927.31;5090569;28;20032;-91
2022/11/27 03:54:18;;;;;;;67.50;39.05;;;;;;;4.48;100.00;100944.50;5090690;28;20032;-91
2022/11/27 03:57:13;;;;;;;66.18;37.55;;;;;;;4.46;100.00;100937.59;4992734;28;20128;-91
2022/11/27 03:59:43;;;;;;;62.97;35.30;;;;;;;4.49;100.00;100947.94;4992756;28;20033;-91
2022/11/27 04:02:13;;;;;;;59.72;36.50;;;;;;;4.51;100.00;100948.81;4992899;28;20591;-90
2022/11/27 04:04:38;;;;;;;62.03;36.40;;;;;;;4.53;100.00;100952.22;4992678;28;20120;-91
2022/11/27 04:07:04;;;;;;;67.75;37.28;;;;;;;4.45;100.00;100936.75;4996493;28;20121;-91
2022/11/27 04:09:29;;;;;;;59.20;36.65;;;;;;;4.52;100.00;100944.50;4996465;28;20069;-90
2022/11/27 04:11:54;;;;;;;64.07;40.55;;;;;;;4.49;100.00;100943.63;4996579;28;20029;-91
2022/11/27 04:14:20;;;;;;;63.85;35.92;;;;;;;4.43;100.00;100927.31;4996467;28;20044;-91
2022/11/27 04:16:45;;;;;;;60.95;36.80;;;;;;;4.47;100.00;100932.47;4996339;28;20397;-91
2022/11/27 04:19:11;;;;;;;57.97;34.53;;;;;;;4.42;100.00;100935.88;4996623;28;20029;-91
2022/11/27 04:21:36;;;;;;;59.55;35.15;;;;;;;4.41;100.00;100922.13;4996200;28;20460;-91
2022/11/27 04:24:01;;;;;;;61.53;36.47;;;;;;;4.36;100.00;100925.59;4996374;28;20036;-91
2022/11/27 04:26:27;;;;;;;53.88;33.08;;;;;;;4.36;100.00;100929.03;4973506;28;20034;-91
2022/11/27 04:28:52;;;;;;;61.67;35.47;;;;;;;4.39;100.00;100928.16;4957153;28;20150;-90
2022/11/27 04:31:17;;;;;;;55.88;34.72;;;;;;;4.34;100.00;100909.22;4957312;28;20039;-90
2022/11/27 04:33:43;;;;;;;58.13;33.78;;;;;;;4.38;100.00;100924.75;5014014;28;20538;-90
2022/11/27 04:36:08;;;;;;;57.17;33.35;;;;;;;4.37;100.00;100922.13;5055244;28;20054;-90
2022/11/27 04:38:34;;;;;;;66.93;36.35;;;;;;;4.32;100.00;100916.13;5055181;28;20028;-90
2022/11/27 04:40:59;;;;;;;57.20;34.63;;;;;;;4.35;100.00;100917.00;5055395;28;20123;-90
2022/11/27 04:43:25;;;;;;;63.30;34.15;;;;;;;4.32;100.00;100914.41;5051821;28;20135;-90
2022/11/27 04:45:50;;;;;;;58.00;32.60;;;;;;;4.38;100.00;100921.25;5035089;28;20119;-90
2022/11/27 04:48:16;;;;;;;61.08;33.10;;;;;;;4.42;100.00;100921.25;5035451;28;20480;-90
2022/11/27 04:50:41;;;;;;;54.65;30.65;;;;;;;4.39;100.00;100916.13;5035122;28;20071;-90
2022/11/27 04:53:06;;;;;;;50.42;31.20;;;;;;;4.41;100.00;100918.69;5035211;28;20033;-90
2022/11/27 04:55:32;;;;;;;52.10;31.33;;;;;;;4.43;100.00;100924.72;5035017;28;20032;-90
2022/11/27 04:57:57;;;;;;;51.58;31.27;;;;;;;4.45;100.00;100917.84;5063759;28;20470;-91
2022/11/27 05:00:22;;;;;;;54.05;31.88;;;;;;;4.47;100.00;100905.81;5075187;28;20035;-90
2022/11/27 05:02:48;;;;;;;55.97;31.70;;;;;;;4.48;100.00;100910.09;5074773;28;20024;-91
2022/11/27 05:05:13;;;;;;;52.70;31.60;;;;;;;4.49;100.00;100914.38;5075080;28;20028;-91
2022/11/27 05:07:39;;;;;;;56.08;33.28;;;;;;;4.49;100.00;100915.25;5074803;28;20023;-91
2022/11/27 05:10:05;;;;;;;55.10;31.17;;;;;;;4.44;100.00;100913.53;5074885;28;20071;-91
2022/11/27 05:12:30;;;;;;;57.67;33.08;;;;;;;4.47;100.00;100926.44;5074885;28;20044;-91
2022/11/27 05:14:55;;;;;;;53.08;32.47;;;;;;;4.47;100.00;100926.44;5086688;28;20506;-90
2022/11/27 05:17:21;;;;;;;52.85;32.10;;;;;;;4.48;100.00;100928.16;5093144;28;20022;-91
2022/11/27 05:19:46;;;;;;;57.88;33.70;;;;;;;4.50;100.00;100927.28;5092719;28;20103;-91
2022/11/27 05:22:12;;;;;;;50.95;31.70;;;;;;;4.50;100.00;100931.56;5092885;28;20052;-91
2022/11/27 05:24:37;;;;;;;53.35;31.05;;;;;;;4.52;100.00;100921.28;5092574;28;20024;-91
2022/11/27 05:27:03;;;;;;;52.33;31.73;;;;;;;4.53;100.00;100922.97;5092729;28;20024;-90
2022/11/27 05:29:28;;;;;;;49.53;31.10;;;;;;;4.54;100.00;100929.84;5092674;28;20022;-90
2022/11/27 05:31:54;;;;;;;49.40;30.30;;;;;;;4.54;100.00;100942.75;5092458;28;20455;-91
2022/11/27 05:34:19;;;;;;;51.63;31.35;;;;;;;4.52;100.00;100934.19;5092698;28;20153;-91
2022/11/27 05:36:45;;;;;;;53.65;30.13;;;;;;;4.54;100.00;100940.19;5092301;28;20076;-91
2022/11/27 05:39:11;;;;;;;52.45;30.50;;;;;;;4.55;100.00;100949.63;5092514;28;20379;-91
2022/11/27 05:41:38;;;;;;;47.72;29.88;;;;;;;4.56;100.00;100949.66;5092211;28;20172;-91
2022/11/27 05:44:04;;;;;;;48.90;29.25;;;;;;;4.57;100.00;100951.34;5092541;28;20367;-90
2022/11/27 05:46:29;;;;;;;52.35;29.30;;;;;;;4.55;100.00;100947.03;5092505;28;20016;-91
2022/11/27 05:48:55;;;;;;;55.97;31.33;;;;;;;4.54;100.00;100941.03;5091984;28;20023;-90
2022/11/27 05:51:20;;;;;;;51.35;31.60;;;;;;;4.56;100.00;100943.63;5092235;28;20117;-90
2022/11/27 05:53:46;;;;;;;52.35;30.30;;;;;;;4.57;100.00;100946.19;5091962;28;20031;-89
2022/11/27 05:56:15;;;;;;;54.38;31.73;;;;;;;4.58;100.00;100939.31;5092109;28;20524;-91
2022/11/27 05:58:42;;;;;;;64.32;39.03;;;;;;;4.63;100.00;100945.31;5091762;28;20024;-91
2022/11/27 06:01:09;;;;;;;62.42;36.40;;;;;;;4.62;100.00;100947.03;5092245;28;20028;-91
2022/11/27 06:03:34;;;;;;;53.30;32.03;;;;;;;4.59;100.00;100947.03;5092024;28;20020;-92
2022/11/27 06:06:14;;;;;;;59.80;33.70;;;;;;;4.59;100.00;100949.63;5092093;28;20383;-91
2022/11/27 06:08:40;;;;;;;54.67;33.70;;;;;;;4.61;100.00;100945.34;5091751;28;20016;-91
2022/11/27 06:11:14;;;;;;;55.88;32.65;;;;;;;4.60;100.00;100955.66;5091826;28;20475;-91
2022/11/27 06:13:40;;;;;;;53.45;31.10;;;;;;;4.36;100.00;100923.88;5091717;28;20020;-91
2022/11/27 06:16:13;;;;;;;65.72;31.58;;;;;;;4.57;100.00;100959.09;5091984;28;20027;-91
2022/11/27 06:18:39;;;;;;;51.78;30.35;;;;;;;4.52;100.00;100953.09;5091578;28;20030;-91
2022/11/27 06:21:06;;;;;;;52.25;30.02;;;;;;;4.51;100.00;100959.13;5091675;28;20028;-91
2022/11/27 06:23:32;;;;;;;48.45;29.80;;;;;;;4.49;100.00;100960.81;5091544;28;20020;-91
2022/11/27 06:25:57;;;;;;;45.95;28.52;;;;;;;4.48;100.00;100962.56;5091535;28;20031;-91
2022/11/27 06:28:23;;;;;;;42.28;27.35;;;;;;;4.42;100.00;100943.63;5091208;28;20020;-91
2022/11/27 06:30:48;;;;;;;44.95;26.75;;;;;;;4.51;100.00;100964.28;5091369;28;20024;-91
2022/11/27 06:33:13;;;;;;;47.75;30.10;;;;;;;4.53;100.00;100964.25;5091469;28;20020;-90
2022/11/27 06:35:39;;;;;;;48.55;30.88;;;;;;;4.54;100.00;100972.00;5091114;28;20044;-90
2022/11/27 06:38:04;;;;;;;65.50;38.30;;;;;;;4.52;100.00;100968.56;5091349;28;20020;-90
2022/11/27 06:40:29;;;;;;;54.72;33.85;;;;;;;4.52;100.00;100968.56;5091540;28;20119;-91
2022/11/27 06:42:55;;;;;;;52.13;30.63;;;;;;;4.44;100.00;100960.84;5091132;28;20024;-91
2022/11/27 06:45:21;;;;;;;48.28;29.48;;;;;;;4.45;100.00;100961.69;5091519;28;20397;-90
2022/11/27 06:47:46;;;;;;;58.08;33.00;;;;;;;4.47;100.00;100976.31;5091026;28;20024;-91
2022/11/27 06:50:11;;;;;;;56.08;33.58;;;;;;;4.48;100.00;100969.44;5091129;28;20039;-91
2022/11/27 06:52:37;;;;;;;50.75;31.42;;;;;;;4.47;100.00;100972.88;5091052;28;20104;-91
2022/11/27 06:55:02;;;;;;;51.13;30.23;;;;;;;4.48;100.00;100978.03;5091078;28;20023;-91
2022/11/27 06:57:28;;;;;;;54.67;32.20;;;;;;;4.51;100.00;100972.03;5091191;28;20051;-91
2022/11/27 06:59:53;;;;;;;57.28;35.33;;;;;;;4.43;100.00;100953.97;5090930;28;20129;-91
2022/11/27 07:02:18;;;;;;;64.25;34.95;;;;;;;4.49;100.00;100968.56;5091066;28;20027;-91
2022/11/27 07:04:44;;;;;;;51.67;31.35;;;;;;;4.46;100.00;100974.56;5090745;28;20112;-91
2022/11/27 07:07:10;;;;;;;57.10;32.95;;;;;;;4.45;100.00;100972.00;5090809;28;20480;-91
2022/11/27 07:09:35;;;;;;;69.60;34.78;;;;;;;4.47;100.00;100971.16;5091133;28;20244;-91
2022/11/27 07:12:03;;;;;;;62.65;35.40;;;;;;;4.41;100.00;100968.56;5090744;28;20058;-91
2022/11/27 07:14:29;;;;;;;107.28;35.95;;;;;;;4.40;100.00;100966.00;5090887;28;20581;-91
2022/11/27 07:16:54;;;;;;;59.92;32.40;;;;;;;4.41;100.00;100965.13;5090626;28;20119;-91
2022/11/27 07:19:19;;;;;;;51.22;32.15;;;;;;;4.38;100.00;100962.53;5090875;28;20020;-91
2022/11/27 07:21:45;;;;;;;52.60;29.50;;;;;;;4.40;100.00;100971.16;5090321;28;20020;-88
2022/11/27 07:24:10;;;;;;;42.10;27.08;;;;;;;4.35;100.00;100957.41;5091004;28;20106;-89
2022/11/27 07:26:35;;;;;;;47.92;29.52;;;;;;;4.37;100.00;100947.94;5090953;28;20020;-89
2022/11/27 07:29:01;;;;;;;59.85;32.30;;;;;;;4.42;100.00;100962.53;5077707;28;20040;-89
2022/11/27 07:31:28;;;;;;;45.35;28.10;;;;;;;4.50;100.00;100958.22;5070668;28;20020;-89
2022/11/27 07:33:55;;;;;;;53.47;31.63;;;;;;;4.40;100.00;100930.75;5071502;28;20020;-89
2022/11/27 07:36:22;;;;;;;73.40;32.65;;;;;;;4.51;100.00;100964.28;5070379;28;20059;-89
2022/11/27 07:38:48;;;;;;;51.55;30.95;;;;;;;4.39;100.00;100947.09;5070373;28;20024;-89
2022/11/27 07:41:14;;;;;;;50.92;30.70;;;;;;;4.48;100.00;100956.53;5072982;28;20032;-89
2022/11/27 07:43:41;;;;;;;72.20;36.88;;;;;;;4.50;100.00;100962.53;5074509;28;20495;-89
2022/11/27 07:46:09;;;;;;;57.75;35.72;;;;;;;4.45;100.00;100946.22;5074495;28;20414;-89
2022/11/27 07:48:35;;;;;;;55.00;32.70;;;;;;;4.56;100.00;100959.97;5073011;28;20042;-89
2022/11/27 07:51:00;;;;;;;50.40;30.65;;;;;;;4.58;100.00;100963.38;5056076;28;20128;-89
2022/11/27 07:53:26;;;;;;;46.10;22.05;;;;;;;4.61;100.00;100965.13;5056291;28;20450;-89
2022/11/27 07:55:51;;;;;;;47.45;22.88;;;;;;;4.59;100.00;100961.66;5056088;28;20182;-89
2022/11/27 07:58:17;;;;;;;43.28;24.15;;;;;;;4.61;100.00;100960.81;5056280;28;20040;-89
2022/11/27 08:00:42;;;;;;;55.13;27.67;;;;;;;4.63;100.00;100956.50;5056067;28;20087;-89
2022/11/27 08:03:09;;;;;;;45.95;26.30;;;;;;;4.62;100.00;100957.38;5056011;28;20025;-89
2022/11/27 08:05:35;;;;;;;48.80;28.00;;;;;;;4.69;100.00;100959.09;5056045;28;20029;-89
2022/11/27 08:08:03;;;;;;;49.30;27.75;;;;;;;4.73;100.00;100960.81;5055784;28;20036;-89
2022/11/27 08:10:37;;;;;;;54.42;31.05;;;;;;;4.72;100.00;100959.09;5056017;28;20561;-89
2022/11/27 08:13:03;;;;;;;58.55;30.17;;;;;;;4.77;100.00;100959.06;5055621;28;20034;-89
2022/11/27 08:15:29;;;;;;;53.63;30.80;;;;;;;4.84;100.00;100960.75;5055933;28;20030;-89
2022/11/27 08:17:54;;;;;;;61.53;37.45;;;;;;;4.87;100.00;100957.31;5055499;28;20494;-89
2022/11/27 08:20:20;;;;;;;48.15;29.70;;;;;;;4.85;100.00;100957.34;5069785;28;20062;-89
2022/11/27 08:22:46;;;;;;;49.05;27.95;;;;;;;4.81;100.00;100947.03;5073526;28;20016;-89
2022/11/27 08:25:11;;;;;;;42.92;26.35;;;;;;;4.84;100.00;100953.03;5073811;28;20115;-89
2022/11/27 08:27:37;;;;;;;47.38;27.42;;;;;;;4.82;100.00;100938.41;5073714;28;20024;-89
2022/11/27 08:30:04;;;;;;;47.35;27.23;;;;;;;4.86;100.00;100942.72;5073489;28;20062;-89
2022/11/27 08:32:29;;;;;;;48.15;24.27;;;;;;;4.84;100.00;100937.53;5073401;28;20024;-90
2022/11/27 08:34:55;;;;;;;39.70;21.70;;;;;;;4.88;100.00;100939.25;5073142;28;20360;-89
2022/11/27 08:37:20;;;;;;;39.55;22.63;;;;;;;4.96;100.00;100940.06;5073329;28;20086;-89
2022/11/27 08:39:46;;;;;;;42.88;25.67;;;;;;;5.07;100.00;100939.19;5073334;28;20029;-89
2022/11/27 08:42:11;;;;;;;44.22;26.95;;;;;;;5.01;100.00;100952.97;5073575;28;20056;-89
2022/11/27 08:44:37;;;;;;;40.72;25.95;;;;;;;4.97;100.00;100954.72;5073566;28;20016;-89
2022/11/27 08:47:02;;;;;;;42.30;26.20;;;;;;;5.02;100.00;100946.97;5073110;28;20474;-90
2022/11/27 08:49:27;;;;;;;38.42;23.73;;;;;;;4.99;100.00;100939.22;5073182;28;20074;-89
2022/11/27 08:51:53;;;;;;;40.78;24.60;;;;;;;5.02;100.00;100946.13;5072822;28;20039;-89
2022/11/27 08:54:18;;;;;;;35.67;22.58;;;;;;;5.09;100.00;100942.63;5073290;28;20024;-89
2022/11/27 08:56:43;;;;;;;34.97;21.30;;;;;;;5.08;100.00;100940.91;5073039;28;20033;-89
2022/11/27 08:59:09;;;;;;;33.80;20.40;;;;;;;5.00;100.00;100946.94;5073044;28;20017;-89
2022/11/27 09:01:34;;;;;;;38.58;23.75;;;;;;;5.02;100.00;100938.38;5073026;28;20074;-89
2022/11/27 09:04:00;;;;;;;34.92;21.65;;;;;;;5.21;100.00;100950.31;5072486;28;20103;-89
2022/11/27 09:06:28;;;;;;;30.85;20.02;;;;;;;5.28;100.00;100946.88;5073117;28;20020;-88
2022/11/27 09:08:59;;;;;;;33.58;22.83;;;;;;;5.39;100.00;100944.22;5072791;28;20020;-88
2022/11/27 09:11:26;;;;;;;35.75;21.92;;;;;;;5.57;100.00;100933.81;5072709;28;20032;-89
2022/11/27 09:13:51;;;;;;;42.72;26.10;;;;;;;5.67;100.00;100930.28;5073905;28;20517;-89
2022/11/27 09:16:19;;;;;;;36.47;24.42;;;;;;;5.62;100.00;100921.72;5072726;28;20024;-89
2022/11/27 09:18:46;;;;;;;34.58;23.92;;;;;;;5.70;100.00;100919.94;5072805;28;20058;-89
2022/11/27 09:21:14;;;;;;;42.88;27.88;;;;;;;5.85;100.00;100925.88;5071189;28;20554;-88
2022/11/27 09:23:39;;;;;;;39.97;26.10;;;;;;;5.86;100.00;100936.22;5054540;28;20028;-89
2022/11/27 09:26:07;;;;;;;43.88;27.63;;;;;;;5.75;100.00;100931.09;5071205;28;20124;-89
2022/11/27 09:28:34;;;;;;;43.83;26.88;;;;;;;5.78;100.00;100932.81;5054430;28;20082;-88
2022/11/27 09:31:01;;;;;;;40.67;27.17;;;;;;;5.78;100.00;100927.66;5048357;28;20040;-89
2022/11/27 09:33:29;;;;;;;41.08;26.13;;;;;;;5.73;100.00;100931.97;5044753;28;20103;-89
2022/11/27 09:35:54;;;;;;;40.95;27.15;;;;;;;5.56;100.00;100915.72;5053761;28;20041;-89
2022/11/27 09:38:20;;;;;;;39.72;26.58;;;;;;;5.68;100.00;100924.25;5053488;28;20128;-89
2022/11/27 09:40:48;;;;;;;44.78;27.60;;;;;;;5.84;100.00;100929.31;5049294;28;20033;-89
2022/11/27 09:43:16;;;;;;;45.72;29.42;;;;;;;5.90;100.00;100926.69;5034353;28;20016;-91
2022/11/27 09:45:47;;;;;;;38.42;25.98;;;;;;;5.82;100.00;100924.19;5034371;28;20540;-91
2022/11/27 09:48:27;;;;;;;55.60;32.70;;;;;;;5.79;100.00;100929.38;5034163;28;20025;-92
2022/11/27 09:50:54;;;;;;;40.55;26.90;;;;;;;5.84;100.00;100922.44;5048010;28;20040;-92
2022/11/27 09:53:31;;;;;;;42.28;26.70;;;;;;;5.91;100.00;100910.31;5051996;28;20060;-90
2022/11/27 09:56:02;;;;;;;37.20;25.77;;;;;;;5.87;100.00;100919.81;5051718;28;20116;-91
2022/11/27 09:58:33;;;;;;;40.22;26.83;;;;;;;5.70;100.00;100898.41;5069016;28;20071;-91
2022/11/27 10:00:58;;;;;;;45.47;28.63;;;;;;;5.80;100.00;100912.97;5060652;28;20143;-90
2022/11/27 10:03:26;;;;;;;40.92;26.90;;;;;;;5.56;100.00;100872.63;5059351;28;20032;-90
2022/11/27 10:06:25;;;;;;;45.53;29.92;;;;;;;5.69;100.00;100900.13;5061120;28;20025;-90
2022/11/27 10:09:01;;;;;;;47.63;33.60;;;;;;;5.75;100.00;100899.22;4955538;28;20031;-90
2022/11/27 10:11:26;;;;;;;43.22;28.63;;;;;;;5.66;100.00;100878.63;4955963;28;20081;-92
2022/11/27 10:14:14;;;;;;;46.03;31.15;;;;;;;5.62;100.00;100866.59;4973515;28;20034;-91
2022/11/27 10:17:01;;;;;;;40.20;26.00;;;;;;;5.63;100.00;100882.06;4966102;28;20030;-92
2022/11/27 10:19:33;;;;;;;40.45;25.65;;;;;;;5.64;100.00;100894.13;4989206;28;20034;-92
2022/11/27 10:22:04;;;;;;;45.22;25.88;;;;;;;5.58;100.00;100877.81;4963724;28;20030;-94
2022/11/27 10:24:35;;;;;;;41.75;25.55;;;;;;;5.72;100.00;100891.47;4978939;28;20413;-92
2022/11/27 10:27:02;;;;;;;45.13;27.23;;;;;;;5.72;100.00;100886.31;4986641;28;20034;-91
2022/11/27 10:29:41;;;;;;;49.70;28.95;;;;;;;5.55;100.00;100870.06;4963928;28;20113;-91
2022/11/27 10:32:22;;;;;;;46.17;28.60;;;;;;;5.52;100.00;100881.31;4963634;28;20038;-90
2022/11/27 10:34:48;;;;;;;50.38;30.38;;;;;;;5.57;100.00;100882.13;4987771;28;20135;-89
2022/11/27 10:37:19;;;;;;;53.25;30.30;;;;;;;5.39;100.00;100852.06;4923712;29;20502;-90
2022/11/27 10:39:57;;;;;;;;;;;;;;;5.42;100.00;100877.88;4932049;29;20431;-90
2022/11/27 10:42:43;;;;;;;65.55;35.28;;;;;;;5.40;100.00;100861.56;4905429;29;19919;-89
2022/11/27 10:45:28;;;;;;;69.00;35.47;;;;;;;5.31;100.00;100853.88;4951956;28;20038;-89
2022/11/27 10:47:53;;;;;;;58.00;33.13;;;;;;;5.40;100.00;100858.13;4970378;28;20121;-88
2022/11/27 10:50:19;;;;;;;115.72;64.47;;;;;;;5.38;100.00;100857.25;4955073;28;20110;-91
2022/11/27 10:52:55;;;;;;;66.38;41.58;;;;;;;5.28;100.00;100853.03;4936847;28;20028;-89
2022/11/27 10:55:32;;;;;;;59.75;32.67;;;;;;;5.36;100.00;100859.00;4975131;28;20031;-90
2022/11/27 10:58:43;;;;;;;63.15;33.53;;;;;;;5.41;100.00;100858.09;4978887;28;20386;-90
2022/11/27 11:01:12;;;;;;;59.53;33.67;;;;;;;5.49;100.00;100852.88;4919640;29;20147;-89
2022/11/27 11:03:37;;;;;;;56.65;33.08;;;;;;;5.51;100.00;100846.81;4929341;29;20123;-87
2022/11/27 11:06:07;;;;;;;58.97;33.50;;;;;;;5.41;100.00;100832.25;4931936;29;20126;-87
2022/11/27 11:08:35;;;;;;;57.97;34.97;;;;;;;5.43;100.00;100847.75;4956203;28;20057;-86
2022/11/27 11:11:05;;;;;;;66.07;38.05;;;;;;;5.47;100.00;100844.28;4971063;28;20580;-88
2022/11/27 11:13:44;;;;;;;61.28;38.47;;;;;;;5.52;100.00;100842.53;4954607;28;20034;-88
2022/11/27 11:16:10;;;;;;;68.85;41.13;;;;;;;5.35;100.00;100810.75;4970716;28;20041;-88